createdAt,value
2019-03-12T00:00:52.090Z,7.45
2019-03-12T00:03:35.385Z,7.40
2019-03-12T00:06:01.174Z,7.42
2019-03-12T00:08:34.497Z,7.44
2019-03-12T00:11:08.697Z,7.48
2019-03-12T00:13:45.737Z,7.50
2019-03-12T00:16:18.177Z,7.52
2019-03-12T00:18:57.265Z,7.53
2019-03-12T00:21:46.767Z,7.59
2019-03-12T00:24:17.674Z,7.60
2019-03-12T00:26:50.595Z,7.59
2019-03-12T00:29:23.092Z,7.54
2019-03-12T00:31:58.167Z,7.52
2019-03-12T00:34:31.009Z,7.49
2019-03-12T00:37:01.915Z,7.47
2019-03-12T00:39:32.807Z,7.47
2019-03-12T00:42:09.976Z,7.41
2019-03-12T00:44:41.901Z,7.36
2019-03-12T00:47:20.684Z,7.40
2019-03-12T00:49:54.737Z,7.42
2019-03-12T00:52:36.568Z,7.38
2019-03-12T00:55:11.133Z,7.33
2019-03-12T00:57:42.882Z,7.28
2019-03-12T01:00:20.221Z,7.27
2019-03-12T01:02:57.340Z,7.23
2019-03-12T01:05:29.728Z,7.21
2019-03-12T01:08:01.663Z,7.21
2019-03-12T01:10:37.480Z,7.22
2019-03-12T01:13:16.450Z,7.23
2019-03-12T01:15:50.135Z,7.24
2019-03-12T01:18:22.219Z,7.23
2019-03-12T01:20:58.103Z,7.25
2019-03-12T01:23:30.521Z,7.34
2019-03-12T01:26:01.469Z,7.36
2019-03-12T01:28:34.355Z,7.39
2019-03-12T01:31:05.880Z,7.45
2019-03-12T01:33:40.052Z,7.52
2019-03-12T01:36:18.249Z,7.62
2019-03-12T01:38:51.296Z,7.65
2019-03-12T01:41:22.554Z,7.69
2019-03-12T01:43:53.798Z,7.71
2019-03-12T01:46:25.038Z,7.75
2019-03-12T01:48:56.401Z,7.75
2019-03-12T01:51:27.421Z,7.70
2019-03-12T01:53:58.581Z,7.60
2019-03-12T01:56:29.386Z,7.52
2019-03-12T01:59:02.599Z,7.46
2019-03-12T02:01:34.527Z,7.45
2019-03-12T02:04:06.697Z,7.49
2019-03-12T02:06:38.785Z,7.55
2019-03-12T02:09:11.357Z,7.59
2019-03-12T02:11:44.804Z,7.60
2019-03-12T02:14:29.972Z,7.63
2019-03-12T02:17:00.799Z,7.62
2019-03-12T02:19:31.697Z,7.61
2019-03-12T02:22:02.776Z,7.60
2019-03-12T02:24:35.411Z,7.62
2019-03-12T02:27:07.619Z,7.62
2019-03-12T02:29:41.917Z,7.64
2019-03-12T02:32:12.865Z,7.65
2019-03-12T02:34:44.068Z,7.70
2019-03-12T02:37:18.153Z,7.72
2019-03-12T02:39:53.627Z,7.74
2019-03-12T02:42:32.915Z,7.75
2019-03-12T02:45:01.010Z,7.76
2019-03-12T02:47:31.797Z,7.74
2019-03-12T02:50:06.295Z,7.72
2019-03-12T02:52:47.374Z,7.71
2019-03-12T02:55:22.575Z,7.65
2019-03-12T02:58:02.226Z,7.69
2019-03-12T03:00:38.677Z,7.71
2019-03-12T03:03:11.250Z,7.75
2019-03-12T03:06:04.603Z,7.80
2019-03-12T03:08:38.478Z,7.78
2019-03-12T03:11:11.021Z,7.75
2019-03-12T03:14:07.756Z,7.85
2019-03-12T03:16:38.894Z,7.94
2019-03-12T03:19:15.882Z,7.91
2019-03-12T03:22:00.594Z,7.85
2019-03-12T03:24:39.607Z,7.83
2019-03-12T03:27:12.901Z,7.79
2019-03-12T03:29:45.115Z,7.78
2019-03-12T03:32:17.091Z,7.71
2019-03-12T03:34:55.452Z,7.71
2019-03-12T03:37:41.198Z,7.78
2019-03-12T03:40:17.791Z,7.76
2019-03-12T03:42:55.086Z,7.70
2019-03-12T03:45:26.680Z,7.68
2019-03-12T03:48:03.466Z,7.69
2019-03-12T03:50:39.437Z,7.69
2019-03-12T03:53:20.854Z,7.67
2019-03-12T03:55:57.310Z,7.64
2019-03-12T03:58:44.401Z,7.62
2019-03-12T04:01:23.843Z,7.57
2019-03-12T04:04:02.344Z,7.51
2019-03-12T04:06:38.464Z,7.55
2019-03-12T04:09:12.855Z,7.54
2019-03-12T04:11:51.564Z,7.44
2019-03-12T04:14:25.208Z,7.28
2019-03-12T04:16:56.133Z,7.14
2019-03-12T04:19:45.453Z,7.05
2019-03-12T04:22:43.658Z,6.90
2019-03-12T04:25:32.962Z,6.86
2019-03-12T04:28:13.572Z,6.78
2019-03-12T04:30:51.219Z,6.74
2019-03-12T04:34:30.865Z,6.78
2019-03-12T04:37:12.200Z,6.81
2019-03-12T04:39:55.266Z,6.85
2019-03-12T04:42:32.509Z,6.85
2019-03-12T04:45:22.073Z,6.83
2019-03-12T04:47:59.441Z,6.81
2019-03-12T04:50:38.918Z,6.82
2019-03-12T04:53:19.022Z,6.87
2019-03-12T04:55:51.807Z,6.88
2019-03-12T04:58:28.021Z,6.91
2019-03-12T05:01:05.266Z,6.86
2019-03-12T05:03:46.205Z,6.83
2019-03-12T05:06:21.571Z,6.79
2019-03-12T05:09:01.343Z,6.79
2019-03-12T05:11:35.919Z,6.79
2019-03-12T05:14:58.140Z,6.70
2019-03-12T05:17:38.242Z,6.66
2019-03-12T05:20:24.827Z,6.59
2019-03-12T05:23:04.811Z,6.63
2019-03-12T05:25:50.739Z,6.73
2019-03-12T05:28:37.460Z,6.78
2019-03-12T05:31:08.043Z,6.78
2019-03-12T05:33:48.081Z,6.81
2019-03-12T05:36:27.354Z,6.78
2019-03-12T05:39:00.734Z,6.79
2019-03-12T05:41:32.902Z,6.78
2019-03-12T05:44:05.565Z,6.73
2019-03-12T05:46:40.395Z,6.78
2019-03-12T05:49:18.310Z,6.80
2019-03-12T05:51:50.497Z,6.84
2019-03-12T05:54:23.885Z,6.89
2019-03-12T05:56:58.672Z,6.91
2019-03-12T05:59:32.719Z,6.94
2019-03-12T06:02:06.333Z,6.97
2019-03-12T06:04:40.143Z,7.00
2019-03-12T06:07:18.233Z,7.00
2019-03-12T06:09:51.875Z,6.96
2019-03-12T06:12:24.764Z,6.99
2019-03-12T06:14:59.412Z,6.99
2019-03-12T06:17:30.483Z,6.97
2019-03-12T06:20:05.013Z,6.98
2019-03-12T06:22:38.644Z,7.00
2019-03-12T06:25:14.960Z,7.08
2019-03-12T06:27:47.100Z,7.16
2019-03-12T06:30:20.795Z,7.28
2019-03-12T06:33:06.164Z,7.33
2019-03-12T06:35:41.497Z,7.35
2019-03-12T06:38:20.950Z,7.41
2019-03-12T06:40:59.713Z,7.44
2019-03-12T06:43:55.399Z,7.49
2019-03-12T06:46:39.005Z,7.59
2019-03-12T06:49:15.066Z,7.68
2019-03-12T06:52:21.060Z,7.71
2019-03-12T06:55:15.180Z,7.76
2019-03-12T06:58:26.424Z,7.76
2019-03-12T07:01:08.095Z,7.77
2019-03-12T07:03:58.994Z,7.81
2019-03-12T07:07:06.843Z,7.90
2019-03-12T07:10:00.386Z,7.91
2019-03-12T07:13:03.518Z,8.01
2019-03-12T07:15:39.640Z,8.02
2019-03-12T07:18:36.094Z,8.10
2019-03-12T07:21:34.524Z,8.19
2019-03-12T07:24:23.225Z,8.30
2019-03-12T07:27:14.850Z,8.36
2019-03-12T07:30:13.154Z,8.40
2019-03-12T07:33:12.700Z,8.48
2019-03-12T07:36:02.600Z,8.49
2019-03-12T07:38:59.678Z,8.57
2019-03-12T07:41:37.991Z,8.58
2019-03-12T07:44:25.680Z,8.62
2019-03-12T07:47:14.554Z,8.64
2019-03-12T07:49:56.697Z,8.70
2019-03-12T07:52:53.403Z,8.82
2019-03-12T07:55:49.147Z,8.94
2019-03-12T07:58:47.916Z,8.98
2019-03-12T08:01:44.461Z,9.11
2019-03-12T08:05:09.972Z,9.30
2019-03-12T08:08:06.842Z,9.44
2019-03-12T08:10:51.213Z,9.55
2019-03-12T08:13:40.952Z,9.60
2019-03-12T08:16:29.691Z,9.71
2019-03-12T08:19:31.441Z,9.68
2019-03-12T08:22:33.099Z,9.79
2019-03-12T08:25:23.840Z,10.05
2019-03-12T08:28:00.380Z,9.95
2019-03-12T08:30:58.505Z,9.93
2019-03-12T08:34:10.025Z,9.94
2019-03-12T08:37:00.151Z,9.96
2019-03-12T08:41:38.919Z,10.07
2019-03-12T08:42:54.007Z,10.08
2019-03-12T08:45:37.709Z,10.05
2019-03-12T08:48:24.753Z,9.99
2019-03-12T08:51:12.771Z,10.16
2019-03-12T08:53:56.497Z,10.27
2019-03-12T08:56:54.234Z,10.18
2019-03-12T08:59:48.079Z,10.27
2019-03-12T09:02:43.099Z,10.26
2019-03-12T09:05:26.452Z,10.29
2019-03-12T09:08:18.590Z,10.51
2019-03-12T09:11:09.091Z,10.59
2019-03-12T09:14:07.994Z,10.92
2019-03-12T09:17:02.092Z,10.86
2019-03-12T09:19:44.889Z,10.76
2019-03-12T09:22:26.363Z,10.73
2019-03-12T09:25:38.144Z,10.79
2019-03-12T09:28:33.884Z,10.67
2019-03-12T09:31:15.623Z,10.51
2019-03-12T09:34:07.102Z,10.37
2019-03-12T09:37:02.826Z,10.25
2019-03-12T09:40:02.543Z,10.21
2019-03-12T09:43:12.271Z,10.09
2019-03-12T09:45:45.254Z,10.36
2019-03-12T09:48:33.805Z,10.40
2019-03-12T09:51:31.157Z,10.46
2019-03-12T09:54:34.204Z,10.94
2019-03-12T09:57:53.790Z,11.56
2019-03-12T10:00:48.744Z,11.84
2019-03-12T10:03:42.225Z,11.39
2019-03-12T10:06:32.346Z,11.17
2019-03-12T10:09:54.786Z,11.33
2019-03-12T10:12:53.502Z,11.48
2019-03-12T10:16:19.256Z,11.53
2019-03-12T10:19:14.119Z,11.59
2019-03-12T10:22:26.029Z,11.89
2019-03-12T10:25:29.835Z,12.33
2019-03-12T10:28:28.737Z,12.51
2019-03-12T10:31:21.842Z,12.69
2019-03-12T10:34:30.989Z,12.41
2019-03-12T10:37:21.179Z,12.00
2019-03-12T10:40:58.460Z,11.67
2019-03-12T10:43:55.549Z,11.62
2019-03-12T10:46:53.914Z,12.03
2019-03-12T10:49:47.598Z,12.24
2019-03-12T10:52:22.362Z,12.19
2019-03-12T10:55:13.425Z,11.87
2019-03-12T10:58:13.432Z,11.60
2019-03-12T11:00:52.824Z,11.74
2019-03-12T11:03:32.688Z,11.81
2019-03-12T11:06:13.600Z,11.73
2019-03-12T11:09:08.329Z,11.95
2019-03-12T11:11:46.720Z,12.30
2019-03-12T11:14:27.254Z,12.54
2019-03-12T11:17:02.263Z,12.61
2019-03-12T11:19:41.997Z,12.64
2019-03-12T11:22:20.715Z,12.54
2019-03-12T11:24:54.607Z,12.68
2019-03-12T11:27:31.879Z,12.98
2019-03-12T11:30:06.670Z,13.34
2019-03-12T11:33:00.549Z,13.29
2019-03-12T11:35:24.571Z,13.39
2019-03-12T11:38:12.299Z,13.49
2019-03-12T11:44:43.374Z,13.58
2019-03-12T11:47:36.424Z,13.27
2019-03-12T11:50:12.478Z,13.19
2019-03-12T11:53:00.090Z,13.34
2019-03-12T11:55:38.826Z,13.27
2019-03-12T11:58:22.569Z,12.91
2019-03-12T12:01:06.425Z,12.65
2019-03-12T12:03:38.717Z,12.57
2019-03-12T12:06:13.932Z,12.61
2019-03-12T12:08:49.278Z,12.82
2019-03-12T12:11:52.714Z,13.07
2019-03-12T12:14:18.737Z,12.83
2019-03-12T12:17:25.154Z,12.77
2019-03-12T12:20:00.391Z,12.80
2019-03-12T12:22:34.941Z,12.97
2019-03-12T12:25:37.413Z,13.11
2019-03-12T12:28:18.911Z,12.97
2019-03-12T12:30:52.033Z,12.83
2019-03-12T12:33:26.556Z,12.59
2019-03-12T12:36:04.124Z,12.83
2019-03-12T12:38:38.229Z,13.09
2019-03-12T12:41:16.966Z,13.10
2019-03-12T12:44:08.733Z,13.41
2019-03-12T12:46:46.067Z,13.58
2019-03-12T12:49:28.042Z,13.56
2019-03-12T12:52:19.529Z,13.46
2019-03-12T12:55:17.210Z,13.55
2019-03-12T12:57:50.356Z,13.55
2019-03-12T13:00:32.109Z,13.57
2019-03-12T13:03:13.267Z,13.76
2019-03-12T13:05:55.454Z,13.89
2019-03-12T13:08:30.760Z,13.72
2019-03-12T13:11:07.155Z,13.58
2019-03-12T13:13:42.216Z,13.44
2019-03-12T13:16:25.561Z,13.46
2019-03-12T13:18:59.895Z,13.40
2019-03-12T13:21:44.341Z,13.41
2019-03-12T13:24:35.538Z,13.71
2019-03-12T13:27:10.888Z,13.62
2019-03-12T13:29:59.615Z,13.35
2019-03-12T13:33:34.435Z,13.15
2019-03-12T13:39:21.549Z,13.22
2019-03-12T13:42:15.619Z,13.47
2019-03-12T13:45:02.225Z,13.61
2019-03-12T13:47:46.228Z,13.55
2019-03-12T13:50:18.397Z,13.46
2019-03-12T13:52:51.640Z,13.71
2019-03-12T13:55:35.128Z,13.97
2019-03-12T13:58:20.168Z,14.10
2019-03-12T14:00:56.317Z,13.94
2019-03-12T14:03:31.718Z,13.66
2019-03-12T14:06:02.708Z,13.47
2019-03-12T14:08:36.022Z,13.52
2019-03-12T14:11:08.116Z,13.58
2019-03-12T14:13:47.795Z,13.52
2019-03-12T14:16:17.296Z,13.58
2019-03-12T14:18:49.432Z,13.62
2019-03-12T14:21:29.038Z,13.52
2019-03-12T14:24:04.128Z,13.38
2019-03-12T14:26:35.463Z,13.36
2019-03-12T14:29:16.698Z,13.55
2019-03-12T14:31:47.801Z,13.63
2019-03-12T14:34:27.067Z,13.67
2019-03-12T14:37:05.605Z,13.99
2019-03-12T14:39:53.464Z,13.94
2019-03-12T14:42:53.814Z,13.59
2019-03-12T14:45:40.824Z,13.29
2019-03-12T14:49:02.181Z,13.40
2019-03-12T14:52:31.057Z,13.48
2019-03-12T14:55:36.878Z,13.31
2019-03-12T14:58:51.145Z,13.30
2019-03-12T15:02:18.820Z,13.46
2019-03-12T15:08:19.575Z,13.35
2019-03-12T15:11:04.901Z,13.15
2019-03-12T15:13:58.761Z,13.09
2019-03-12T15:16:57.544Z,12.98
2019-03-12T15:20:01.938Z,12.82
2019-03-12T15:22:46.952Z,12.63
2019-03-12T15:25:30.089Z,12.48
2019-03-12T15:28:27.011Z,12.35
2019-03-12T15:31:05.124Z,12.26
2019-03-12T15:33:45.613Z,12.22
2019-03-12T15:36:35.281Z,12.25
2019-03-12T15:39:14.624Z,12.31
2019-03-12T15:41:49.905Z,12.30
2019-03-12T15:44:23.629Z,12.27
2019-03-12T15:47:08.847Z,12.27
2019-03-12T15:50:04.407Z,12.28
2019-03-12T15:52:39.921Z,12.33
2019-03-12T15:55:30.349Z,12.40
2019-03-12T15:58:33.690Z,12.40
2019-03-12T16:01:15.526Z,12.30
2019-03-12T16:04:00.157Z,12.22
2019-03-12T16:06:38.445Z,12.18
2019-03-12T16:09:19.994Z,12.12
2019-03-12T16:12:10.311Z,12.06
2019-03-12T16:14:40.897Z,12.01
2019-03-12T16:17:45.423Z,11.99
2019-03-12T16:20:20.500Z,11.95
2019-03-12T16:22:59.076Z,11.93
2019-03-12T16:25:49.650Z,11.86
2019-03-12T16:28:31.786Z,11.81
2019-03-12T16:31:26.192Z,11.77
2019-03-12T16:34:11.722Z,11.71
2019-03-12T16:36:50.109Z,11.65
2019-03-12T16:39:29.882Z,11.64
2019-03-12T16:42:10.324Z,11.60
2019-03-12T16:45:19.401Z,11.52
2019-03-12T16:48:34.786Z,11.52
2019-03-12T16:51:52.684Z,11.45
2019-03-12T16:55:01.199Z,11.40
2019-03-12T16:57:51.803Z,11.32
2019-03-12T17:07:30.351Z,11.29
2019-03-12T17:10:53.923Z,11.27
2019-03-12T17:13:06.442Z,11.27
2019-03-12T17:17:04.127Z,11.27
2019-03-12T17:19:34.503Z,11.23
2019-03-12T17:22:47.704Z,11.17
2019-03-12T17:25:36.678Z,11.15
2019-03-12T17:31:09.576Z,11.15
2019-03-12T17:37:20.183Z,11.16
2019-03-12T17:40:12.834Z,11.16
2019-03-12T17:43:25.819Z,11.16
2019-03-12T17:46:13.705Z,11.19
2019-03-12T17:57:01.279Z,11.14
2019-03-12T17:58:46.357Z,11.09
2019-03-12T18:05:11.479Z,11.00
2019-03-12T18:08:39.261Z,10.99
2019-03-12T18:18:28.490Z,11.53
2019-03-12T18:21:26.671Z,11.32
2019-03-12T18:24:05.644Z,11.22
2019-03-12T18:26:42.566Z,11.14
2019-03-12T18:29:40.098Z,11.11
2019-03-12T18:32:22.601Z,11.11
2019-03-12T18:35:16.922Z,11.07
2019-03-12T18:37:43.802Z,11.06
2019-03-12T18:40:24.083Z,11.01
2019-03-12T18:43:03.177Z,10.97
2019-03-12T18:45:43.631Z,10.95
2019-03-12T18:48:44.520Z,10.92
2019-03-12T18:51:18.203Z,10.89
2019-03-12T18:53:52.542Z,10.89
2019-03-12T18:56:38.153Z,10.88
2019-03-12T18:59:18.755Z,10.89
2019-03-12T19:02:08.768Z,10.88
2019-03-12T19:05:12.044Z,10.82
2019-03-12T19:07:42.945Z,10.82
2019-03-12T19:10:26.176Z,10.83
2019-03-12T19:12:57.214Z,10.82
2019-03-12T19:15:29.634Z,10.82
2019-03-12T19:18:07.645Z,10.81
2019-03-12T19:20:42.753Z,10.73
2019-03-12T19:23:13.851Z,10.69
2019-03-12T19:25:44.726Z,10.63
2019-03-12T19:28:37.940Z,10.61
2019-03-12T19:31:38.463Z,10.57
2019-03-12T19:34:22.218Z,10.55
2019-03-12T19:37:00.495Z,10.58
2019-03-12T19:39:34.628Z,10.58
2019-03-12T19:42:07.034Z,10.58
2019-03-12T19:44:41.254Z,10.60
2019-03-12T19:57:48.494Z,10.73
2019-03-12T20:00:44.863Z,10.75
2019-03-12T20:04:06.125Z,10.76
2019-03-12T20:07:06.553Z,10.78
2019-03-12T20:10:57.829Z,10.85
2019-03-12T20:14:40.041Z,10.82
2019-03-12T20:18:31.840Z,10.77
2019-03-12T20:22:35.654Z,10.75
2019-03-12T20:26:12.857Z,10.70
2019-03-12T20:29:46.560Z,10.74
2019-03-12T20:33:24.263Z,10.75
2019-03-12T20:37:00.546Z,10.74
2019-03-12T20:40:29.805Z,10.69
2019-03-12T20:48:21.961Z,10.68
2019-03-12T20:51:47.024Z,10.71
2019-03-12T20:55:15.504Z,10.69
2019-03-12T20:58:53.678Z,10.70
2019-03-12T21:02:15.759Z,10.62
2019-03-12T21:05:26.202Z,10.63
2019-03-12T21:09:25.377Z,10.72
2019-03-12T21:12:53.682Z,10.69
2019-03-12T21:16:50.866Z,10.68
2019-03-12T21:20:18.711Z,10.70
2019-03-12T21:23:14.843Z,10.74
2019-03-12T21:26:51.644Z,10.81
2019-03-12T21:29:45.263Z,10.80
2019-03-12T21:32:27.646Z,10.83
2019-03-12T21:35:14.442Z,10.90
2019-03-12T21:38:26.529Z,10.94
2019-03-12T21:41:00.191Z,10.95
2019-03-12T21:43:35.786Z,10.98
2019-03-12T21:46:36.202Z,11.06
2019-03-12T21:49:54.965Z,11.13
2019-03-12T21:52:32.092Z,11.16
2019-03-12T21:55:17.790Z,11.19
2019-03-12T22:01:00.825Z,11.24
2019-03-12T22:04:03.541Z,11.23
2019-03-12T22:06:42.544Z,11.17
2019-03-12T22:09:46.969Z,11.16
2019-03-12T22:12:34.527Z,11.16
2019-03-12T22:15:34.237Z,11.14
2019-03-12T22:18:03.717Z,11.14
2019-03-12T22:20:35.823Z,11.13
2019-03-12T22:23:15.715Z,11.13
2019-03-12T22:25:46.811Z,11.13
2019-03-12T22:28:22.132Z,11.14
2019-03-12T22:30:54.524Z,11.19
2019-03-12T22:33:26.291Z,11.25
2019-03-12T22:36:00.266Z,11.22
2019-03-12T22:38:33.653Z,11.18
2019-03-12T22:41:11.468Z,11.19
2019-03-12T22:44:03.654Z,11.19
2019-03-12T22:46:35.761Z,11.21
2019-03-12T22:49:13.800Z,11.19
2019-03-12T22:51:46.372Z,11.19
2019-03-12T22:54:17.183Z,11.21
2019-03-12T22:56:48.337Z,11.24
2019-03-12T22:59:19.270Z,11.24
2019-03-12T23:01:50.729Z,11.27
2019-03-12T23:04:21.609Z,11.24
2019-03-12T23:06:55.492Z,11.26
2019-03-12T23:09:33.765Z,11.25
2019-03-12T23:12:09.644Z,11.20
2019-03-12T23:14:51.052Z,11.19
2019-03-12T23:17:21.897Z,11.14
2019-03-12T23:19:57.654Z,11.14
2019-03-12T23:22:39.604Z,11.18
2019-03-12T23:25:10.352Z,11.17
2019-03-12T23:27:41.203Z,11.16
2019-03-12T23:30:16.432Z,11.20
2019-03-12T23:32:47.790Z,11.19
2019-03-12T23:35:20.368Z,11.22
2019-03-12T23:37:51.382Z,11.24
2019-03-12T23:40:26.657Z,11.27
2019-03-12T23:42:57.651Z,11.31
2019-03-12T23:45:30.382Z,11.34
2019-03-12T23:48:07.782Z,11.32
2019-03-12T23:50:40.612Z,11.36
2019-03-12T23:53:11.292Z,11.36
2019-03-12T23:55:46.658Z,11.41
2019-03-12T23:58:17.440Z,11.39
